Time;durP1;ratioP1;P1;durP2;ratioP2;P2;SDS_P1;SDS_P2;PMS_P1;PMS_P2;Temp;Humidity;BMP_temperature;BMP_pressure;BME280_temperature;BME280_humidity;BME280_pressure;Samples;Min_cycle;Max_cycle;Signal;HPM_P1;HPM_P2
2023/09/15 00:00:25;;;;;;;5.63;2.30;;;15.50;63.90;;;;;;5015510;28;20061;-85
2023/09/15 00:02:56;;;;;;;5.28;1.95;;;15.40;64.00;;;;;;4968793;28;20513;-86
2023/09/15 00:05:28;;;;;;;5.93;2.23;;;15.40;64.00;;;;;;4978538;28;20066;-86
2023/09/15 00:07:57;;;;;;;4.53;2.25;;;15.40;64.10;;;;;;4998129;28;20259;-86
2023/09/15 00:10:26;;;;;;;5.53;1.80;;;15.40;64.20;;;;;;4973590;28;20158;-86
2023/09/15 00:12:53;;;;;;;4.80;2.00;;;15.30;64.20;;;;;;4989504;28;20062;-86
2023/09/15 00:15:21;;;;;;;4.60;2.05;;;15.30;64.20;;;;;;4996504;28;20129;-86
2023/09/15 00:17:50;;;;;;;5.67;1.93;;;15.30;64.00;;;;;;4998470;28;20071;-86
2023/09/15 00:20:18;;;;;;;5.68;2.00;;;15.20;64.00;;;;;;5014883;28;20282;-86
2023/09/15 00:22:49;;;;;;;5.63;2.30;;;15.10;64.00;;;;;;5012019;28;20669;-86
2023/09/15 00:25:19;;;;;;;5.35;2.00;;;15.00;64.30;;;;;;5010310;28;20058;-86
2023/09/15 00:27:46;;;;;;;4.45;1.92;;;15.00;64.40;;;;;;4962860;28;20512;-86
2023/09/15 00:30:14;;;;;;;5.70;2.07;;;15.00;64.40;;;;;;4981508;28;20047;-86
2023/09/15 00:32:41;;;;;;;6.25;2.33;;;15.00;64.60;;;;;;4994172;28;20293;-87
2023/09/15 00:35:09;;;;;;;5.80;2.03;;;15.00;64.70;;;;;;4999001;28;20050;-86
2023/09/15 00:37:37;;;;;;;6.68;2.20;;;14.90;64.70;;;;;;5002190;28;20054;-86
2023/09/15 00:40:08;;;;;;;4.53;2.03;;;14.90;64.70;;;;;;4984805;28;20057;-86
2023/09/15 00:42:37;;;;;;;5.37;1.83;;;14.90;64.70;;;;;;4973408;28;20061;-86
2023/09/15 00:45:05;;;;;;;5.07;2.20;;;14.90;64.70;;;;;;4968527;28;20782;-86
2023/09/15 00:47:34;;;;;;;4.97;2.10;;;14.80;64.80;;;;;;4997060;28;20059;-86
2023/09/15 00:50:01;;;;;;;5.88;2.10;;;14.80;64.70;;;;;;5004210;28;20043;-86
2023/09/15 00:52:29;;;;;;;5.53;2.00;;;14.80;64.60;;;;;;5006967;28;20157;-86
2023/09/15 00:54:57;;;;;;;6.90;2.30;;;14.80;64.80;;;;;;4997030;28;20058;-86
2023/09/15 00:57:26;;;;;;;5.97;2.28;;;14.80;65.10;;;;;;5016334;28;20393;-86
2023/09/15 00:59:54;;;;;;;5.78;2.17;;;14.80;65.10;;;;;;4956774;28;20055;-86
2023/09/15 01:02:21;;;;;;;4.85;1.90;;;14.70;65.10;;;;;;4989468;28;20137;-86
2023/09/15 01:04:49;;;;;;;6.82;2.10;;;14.70;65.10;;;;;;4989947;28;20113;-86
2023/09/15 01:07:16;;;;;;;4.40;2.00;;;14.70;65.20;;;;;;5013891;28;20163;-86
2023/09/15 01:09:44;;;;;;;5.00;2.20;;;14.70;65.20;;;;;;4988911;28;20385;-86
2023/09/15 01:12:10;;;;;;;5.50;2.08;;;14.60;65.20;;;;;;4972682;28;20122;-86
2023/09/15 01:14:38;;;;;;;4.43;1.80;;;14.60;65.30;;;;;;4973729;28;21009;-86
2023/09/15 01:17:11;;;;;;;5.22;1.88;;;14.50;65.40;;;;;;5008853;28;20138;-86
2023/09/15 01:19:56;;;;;;;5.23;2.00;;;14.50;65.60;;;;;;4992779;28;20046;-86
2023/09/15 01:22:54;;;;;;;5.68;2.10;;;14.40;65.60;;;;;;5015816;28;20278;-85
2023/09/15 01:25:44;;;;;;;5.88;1.88;;;14.40;65.50;;;;;;5013440;28;20066;-86
2023/09/15 01:28:42;;;;;;;5.28;2.13;;;14.40;65.60;;;;;;5025553;28;20051;-86
2023/09/15 01:31:11;;;;;;;5.07;2.00;;;14.30;65.70;;;;;;5007878;28;20468;-86
2023/09/15 01:33:39;;;;;;;5.17;2.00;;;14.20;65.80;;;;;;4989343;28;20054;-86
2023/09/15 01:36:06;;;;;;;5.75;2.17;;;14.20;65.70;;;;;;4981793;28;20251;-86
2023/09/15 01:38:35;;;;;;;5.10;2.17;;;14.20;65.70;;;;;;4972705;28;20279;-86
2023/09/15 01:41:02;;;;;;;5.63;1.70;;;14.20;65.90;;;;;;4974624;28;20550;-86
2023/09/15 01:43:29;;;;;;;4.95;1.88;;;14.20;66.00;;;;;;5005474;28;20074;-86
2023/09/15 01:45:56;;;;;;;3.80;1.87;;;14.10;66.10;;;;;;4972681;28;20078;-86
2023/09/15 01:48:25;;;;;;;5.03;1.88;;;14.10;66.10;;;;;;4957179;28;20768;-86
2023/09/15 01:50:53;;;;;;;7.43;1.83;;;14.10;66.20;;;;;;4975282;28;20148;-86
2023/09/15 01:53:21;;;;;;;4.18;1.85;;;14.10;66.10;;;;;;5024889;28;20619;-85
2023/09/15 01:55:50;;;;;;;4.93;2.10;;;14.10;66.30;;;;;;5004285;28;20050;-86
2023/09/15 01:58:19;;;;;;;6.07;2.13;;;14.00;66.40;;;;;;4956547;28;20109;-86
2023/09/15 02:00:46;;;;;;;5.60;2.10;;;14.00;66.70;;;;;;5007968;28;20328;-86
2023/09/15 02:03:13;;;;;;;6.50;2.33;;;13.90;66.80;;;;;;4993148;28;20051;-86
2023/09/15 02:05:41;;;;;;;5.65;2.03;;;13.90;66.90;;;;;;4976093;28;20066;-86
2023/09/15 02:08:09;;;;;;;5.15;2.15;;;13.90;67.10;;;;;;4992131;28;20110;-86
2023/09/15 02:10:36;;;;;;;5.13;2.07;;;13.80;67.20;;;;;;4959577;28;20058;-85
2023/09/15 02:13:04;;;;;;;4.40;1.75;;;13.80;67.10;;;;;;4991574;28;20324;-86
2023/09/15 02:15:34;;;;;;;4.82;1.80;;;13.80;67.00;;;;;;4992270;28;20057;-85
2023/09/15 02:18:01;;;;;;;5.15;2.17;;;13.70;66.90;;;;;;4975758;28;20062;-86
2023/09/15 02:20:29;;;;;;;6.80;2.10;;;13.70;66.80;;;;;;4975316;28;20133;-86
2023/09/15 02:23:03;;;;;;;5.13;2.00;;;13.60;66.90;;;;;;4979097;28;20055;-85
2023/09/15 02:25:35;;;;;;;4.28;2.10;;;13.60;67.20;;;;;;4975229;28;20366;-86
2023/09/15 02:28:02;;;;;;;5.03;1.92;;;13.50;67.20;;;;;;4992158;28;20059;-86
2023/09/15 02:30:30;;;;;;;5.28;2.30;;;13.50;67.20;;;;;;4990660;28;20142;-85
2023/09/15 02:32:58;;;;;;;4.18;1.98;;;13.30;67.40;;;;;;4959062;28;20051;-86
2023/09/15 02:35:25;;;;;;;6.83;2.40;;;13.30;67.70;;;;;;5013370;28;20062;-86
2023/09/15 02:37:52;;;;;;;4.47;2.28;;;13.30;67.90;;;;;;4978278;28;20258;-86
2023/09/15 02:40:24;;;;;;;4.82;1.77;;;13.20;68.20;;;;;;5009848;28;20074;-86
2023/09/15 02:42:51;;;;;;;4.80;2.03;;;13.10;68.30;;;;;;4975593;28;20081;-85
2023/09/15 02:45:18;;;;;;;4.10;1.90;;;13.10;68.50;;;;;;4975059;28;20501;-86
2023/09/15 02:47:47;;;;;;;5.03;2.10;;;13.00;68.50;;;;;;4974623;28;20058;-86
2023/09/15 02:50:14;;;;;;;5.15;2.08;;;13.00;68.70;;;;;;5010458;28;20254;-86
2023/09/15 02:52:43;;;;;;;5.10;1.90;;;13.00;68.80;;;;;;4994579;28;20058;-86
2023/09/15 02:55:10;;;;;;;5.15;1.80;;;13.00;69.00;;;;;;5027506;28;20161;-86
2023/09/15 02:57:40;;;;;;;4.22;1.80;;;13.00;69.10;;;;;;4991447;28;20820;-86
2023/09/15 03:00:13;;;;;;;6.03;2.30;;;12.90;69.40;;;;;;4992602;28;20131;-86
2023/09/15 03:02:43;;;;;;;4.68;1.83;;;12.90;69.30;;;;;;5010662;28;20298;-86
2023/09/15 03:05:13;;;;;;;4.50;1.80;;;12.80;69.20;;;;;;5015009;28;20141;-86
2023/09/15 03:07:43;;;;;;;5.03;2.35;;;12.80;69.10;;;;;;4958948;28;20114;-86
2023/09/15 03:10:12;;;;;;;4.60;1.98;;;12.70;69.10;;;;;;4990964;28;20054;-86
2023/09/15 03:12:44;;;;;;;4.47;2.00;;;12.70;69.20;;;;;;4990000;28;20505;-85
2023/09/15 03:15:11;;;;;;;5.13;1.80;;;12.60;69.20;;;;;;4956724;28;20339;-85
2023/09/15 03:17:38;;;;;;;5.32;1.98;;;12.60;69.10;;;;;;4974825;28;20059;-86
2023/09/15 03:20:13;;;;;;;6.43;2.45;;;12.50;69.10;;;;;;4990339;28;20474;-86
2023/09/15 03:22:40;;;;;;;5.88;1.88;;;12.50;69.30;;;;;;4989694;28;20066;-85
2023/09/15 03:25:10;;;;;;;4.40;1.90;;;12.50;69.40;;;;;;4958351;28;20049;-86
2023/09/15 03:27:37;;;;;;;5.30;2.28;;;12.50;69.60;;;;;;4974588;28;20309;-85
2023/09/15 03:30:07;;;;;;;4.03;2.10;;;12.50;69.70;;;;;;4990302;28;20580;-86
2023/09/15 03:32:38;;;;;;;5.07;2.00;;;12.50;70.00;;;;;;5007311;28;20090;-85
2023/09/15 03:35:08;;;;;;;4.75;2.03;;;12.40;70.20;;;;;;4990588;28;20138;-86
2023/09/15 03:37:36;;;;;;;6.77;2.40;;;12.30;70.10;;;;;;4974879;28;20079;-86
2023/09/15 03:40:04;;;;;;;4.97;2.40;;;12.30;70.00;;;;;;4957058;28;20794;-86
2023/09/15 03:42:36;;;;;;;4.45;2.13;;;12.20;70.00;;;;;;4971330;28;20074;-86
2023/09/15 03:45:03;;;;;;;6.63;2.20;;;12.20;70.20;;;;;;5010232;28;20539;-85
2023/09/15 03:47:32;;;;;;;4.30;2.25;;;12.20;70.40;;;;;;5004030;28;20043;-86
2023/09/15 03:50:02;;;;;;;5.37;2.40;;;12.10;70.40;;;;;;4990511;28;20062;-86
2023/09/15 03:52:33;;;;;;;6.55;2.33;;;12.10;70.60;;;;;;4990253;28;20302;-85
2023/09/15 03:55:02;;;;;;;5.20;2.53;;;12.10;70.70;;;;;;4989464;28;20059;-85
2023/09/15 03:57:30;;;;;;;5.70;2.42;;;12.10;70.80;;;;;;4986486;28;20086;-86
2023/09/15 03:59:58;;;;;;;6.13;2.50;;;12.10;71.00;;;;;;5026414;28;20450;-86
2023/09/15 04:02:25;;;;;;;5.53;2.40;;;12.00;71.10;;;;;;5025825;28;20165;-85
2023/09/15 04:04:53;;;;;;;5.93;2.30;;;12.00;71.10;;;;;;4994060;28;20354;-85
2023/09/15 04:07:20;;;;;;;5.70;2.45;;;12.10;71.10;;;;;;4990596;28;20065;-86
2023/09/15 04:09:48;;;;;;;5.43;2.70;;;12.10;71.10;;;;;;4990206;28;20055;-85
2023/09/15 04:12:18;;;;;;;5.35;2.50;;;12.10;71.10;;;;;;4989060;28;20145;-85
2023/09/15 04:14:46;;;;;;;7.73;2.70;;;12.00;70.90;;;;;;4973612;28;20063;-85
2023/09/15 04:17:14;;;;;;;6.00;2.40;;;12.00;70.70;;;;;;5010056;28;20280;-85
2023/09/15 04:19:40;;;;;;;5.05;2.78;;;12.00;70.80;;;;;;4989308;28;20134;-86
2023/09/15 04:22:10;;;;;;;6.78;2.90;;;11.90;70.80;;;;;;4997227;28;20059;-86
2023/09/15 04:24:38;;;;;;;6.85;2.97;;;11.90;70.80;;;;;;4966460;28;20051;-86
2023/09/15 04:27:06;;;;;;;6.40;2.17;;;11.90;70.70;;;;;;4989921;28;20054;-85
2023/09/15 04:29:34;;;;;;;4.45;2.40;;;11.90;70.80;;;;;;4996700;28;20301;-85
2023/09/15 04:32:04;;;;;;;5.78;2.55;;;11.80;70.70;;;;;;4981237;28;20046;-86
2023/09/15 04:34:31;;;;;;;4.88;2.13;;;11.80;70.80;;;;;;4989512;28;20055;-86
2023/09/15 04:36:58;;;;;;;5.68;2.30;;;11.80;70.80;;;;;;4965149;28;20057;-85
2023/09/15 04:39:27;;;;;;;4.87;2.10;;;11.80;70.90;;;;;;4989339;28;20529;-85
2023/09/15 04:41:54;;;;;;;5.95;2.40;;;11.70;71.20;;;;;;4962832;28;20283;-85
2023/09/15 04:44:21;;;;;;;6.55;2.33;;;11.70;71.00;;;;;;4976914;28;20544;-85
2023/09/15 04:46:48;;;;;;;4.85;2.50;;;11.70;70.90;;;;;;4972552;28;20051;-85
2023/09/15 04:49:16;;;;;;;4.75;2.40;;;11.70;70.70;;;;;;4978877;28;20142;-85
2023/09/15 04:51:43;;;;;;;4.70;2.00;;;11.60;70.90;;;;;;4959789;28;20177;-85
2023/09/15 04:54:13;;;;;;;5.43;2.40;;;11.50;70.90;;;;;;4997437;28;20263;-85
2023/09/15 04:56:43;;;;;;;5.55;2.60;;;11.50;70.90;;;;;;4977412;28;20055;-85
2023/09/15 04:59:16;;;;;;;5.10;2.17;;;11.50;71.00;;;;;;4988953;28;20559;-86
2023/09/15 05:01:43;;;;;;;5.78;2.38;;;11.50;71.20;;;;;;4994045;28;20062;-85
2023/09/15 05:04:11;;;;;;;5.87;2.63;;;11.40;71.20;;;;;;5006689;28;20130;-85
2023/09/15 05:06:38;;;;;;;4.80;2.63;;;11.40;71.20;;;;;;4991724;28;20302;-85
2023/09/15 05:09:08;;;;;;;5.55;2.50;;;11.30;71.20;;;;;;4979305;28;20057;-84
2023/09/15 05:11:36;;;;;;;4.95;2.42;;;11.30;71.40;;;;;;5016960;28;20138;-85
2023/09/15 05:14:05;;;;;;;5.25;2.55;;;11.30;71.40;;;;;;4985284;28;20589;-87
2023/09/15 05:16:34;;;;;;;5.60;2.20;;;11.20;71.40;;;;;;4994518;28;20510;-84
2023/09/15 05:19:01;;;;;;;5.00;2.30;;;11.20;71.90;;;;;;5004136;28;20348;-84
2023/09/15 05:21:29;;;;;;;5.43;2.28;;;11.10;71.90;;;;;;4979029;28;20051;-85
2023/09/15 05:23:58;;;;;;;4.57;2.30;;;11.20;72.00;;;;;;4964423;28;20051;-85
2023/09/15 05:26:26;;;;;;;5.63;2.45;;;11.20;72.20;;;;;;4957867;28;20975;-85
2023/09/15 05:28:53;;;;;;;6.37;2.50;;;11.20;72.20;;;;;;4954752;28;20105;-85
2023/09/15 05:31:25;;;;;;;4.80;2.15;;;11.20;72.50;;;;;;4955845;28;20373;-85
2023/09/15 05:33:57;;;;;;;5.47;2.30;;;11.20;72.50;;;;;;4970975;28;20050;-85
2023/09/15 05:36:27;;;;;;;5.13;2.50;;;11.20;72.60;;;;;;4970340;28;20509;-85
2023/09/15 05:38:55;;;;;;;8.55;2.83;;;11.10;72.60;;;;;;4954802;28;20055;-85
2023/09/15 05:41:22;;;;;;;4.83;2.33;;;11.10;72.50;;;;;;4955065;28;20153;-85
2023/09/15 05:43:51;;;;;;;6.45;2.47;;;11.10;72.50;;;;;;4988077;28;20293;-85
2023/09/15 05:46:21;;;;;;;5.15;2.40;;;11.10;72.70;;;;;;5007043;28;20146;-85
2023/09/15 05:48:48;;;;;;;6.05;2.42;;;11.20;72.90;;;;;;4971220;28;20059;-85
2023/09/15 05:51:15;;;;;;;6.20;2.58;;;11.20;73.00;;;;;;5007939;28;20569;-84
2023/09/15 05:53:42;;;;;;;6.47;2.70;;;11.20;73.10;;;;;;4965554;28;20102;-85
2023/09/15 05:56:10;;;;;;;5.32;2.50;;;11.30;73.10;;;;;;4971315;28;20362;-85
2023/09/15 05:58:37;;;;;;;4.68;2.28;;;11.30;73.20;;;;;;4987195;28;20126;-82
2023/09/15 06:01:06;;;;;;;7.43;3.00;;;11.30;73.30;;;;;;4987625;28;20050;-82
2023/09/15 06:03:36;;;;;;;7.40;2.88;;;11.30;73.30;;;;;;5000787;28;20378;-81
2023/09/15 06:06:04;;;;;;;5.83;2.90;;;11.30;73.60;;;;;;4989274;28;20055;-81
2023/09/15 06:08:31;;;;;;;5.70;2.78;;;11.40;73.40;;;;;;4954627;28;20267;-82
2023/09/15 06:11:00;;;;;;;7.53;2.70;;;11.40;73.50;;;;;;4962818;28;20047;-81
2023/09/15 06:13:27;;;;;;;5.43;2.70;;;11.40;73.70;;;;;;5014541;28;20059;-82
2023/09/15 06:15:53;;;;;;;7.57;2.85;;;11.40;73.90;;;;;;4980102;28;20055;-81
2023/09/15 06:18:20;;;;;;;6.53;2.60;;;11.40;74.00;;;;;;4994023;28;20061;-81
2023/09/15 06:20:49;;;;;;;5.30;3.05;;;11.40;74.20;;;;;;4993628;28;20765;-81
2023/09/15 06:23:16;;;;;;;7.30;3.10;;;11.50;74.50;;;;;;4978602;28;20042;-82
2023/09/15 06:25:46;;;;;;;6.13;3.17;;;11.50;74.50;;;;;;4971334;28;20494;-82
2023/09/15 06:28:13;;;;;;;7.45;3.30;;;11.50;74.70;;;;;;5012200;28;20053;-84
2023/09/15 06:30:40;;;;;;;6.80;3.10;;;11.50;75.00;;;;;;4962831;28;20081;-84
2023/09/15 06:33:07;;;;;;;5.68;2.92;;;11.50;75.10;;;;;;4980412;28;20254;-84
2023/09/15 06:35:34;;;;;;;6.85;2.92;;;11.60;75.20;;;;;;4996219;28;20533;-84
2023/09/15 06:38:06;;;;;;;8.02;3.25;;;11.60;75.10;;;;;;4971673;28;20055;-83
2023/09/15 06:40:35;;;;;;;6.47;2.83;;;11.70;75.20;;;;;;4979983;28;20057;-82
2023/09/15 06:43:11;;;;;;;7.73;3.40;;;11.70;75.50;;;;;;4965966;28;20138;-82
2023/09/15 06:45:38;;;;;;;7.28;3.47;;;11.70;75.50;;;;;;4984374;28;20284;-80
2023/09/15 06:48:05;;;;;;;6.82;3.45;;;11.70;75.90;;;;;;4966541;28;20046;-83
2023/09/15 06:50:32;;;;;;;6.93;3.10;;;11.80;76.00;;;;;;5002015;28;20390;-83
2023/09/15 06:53:04;;;;;;;8.45;3.08;;;11.90;75.80;;;;;;4993170;28;20054;-83
2023/09/15 06:55:33;;;;;;;6.93;4.20;;;11.90;76.50;;;;;;4977050;28;20054;-84
2023/09/15 06:58:00;;;;;;;5.40;3.30;;;11.90;76.50;;;;;;4981993;28;20262;-87
2023/09/15 07:00:27;;;;;;;6.40;3.28;;;11.90;76.50;;;;;;5012729;28;20157;-88
2023/09/15 07:02:54;;;;;;;7.28;3.40;;;12.00;76.70;;;;;;5008182;28;20057;-90
2023/09/15 07:05:21;;;;;;;6.60;3.33;;;12.00;76.80;;;;;;4978422;28;20070;-86
2023/09/15 07:07:48;;;;;;;7.03;3.63;;;12.10;76.80;;;;;;4991340;28;20061;-82
2023/09/15 07:10:17;;;;;;;8.20;3.30;;;12.10;76.80;;;;;;5006097;28;20909;-82
2023/09/15 07:12:43;;;;;;;5.53;3.05;;;12.10;77.30;;;;;;4990862;28;20608;-91
2023/09/15 07:15:13;;;;;;;7.22;3.60;;;12.20;77.00;;;;;;4990476;28;20603;-92
2023/09/15 07:17:44;;;;;;;7.40;3.55;;;12.20;77.10;;;;;;4997382;28;20622;-91
2023/09/15 07:20:11;;;;;;;8.87;3.63;;;12.30;77.60;;;;;;4985021;28;20065;-89
2023/09/15 07:22:40;;;;;;;8.23;3.70;;;12.30;77.60;;;;;;5011906;28;20255;-90
2023/09/15 07:25:07;;;;;;;6.10;3.28;;;12.40;77.80;;;;;;4999976;28;20145;-87
2023/09/15 07:27:36;;;;;;;7.07;3.75;;;12.50;77.50;;;;;;4990486;28;20074;-87
2023/09/15 07:30:03;;;;;;;7.70;3.70;;;12.50;77.90;;;;;;4983322;28;20062;-87
2023/09/15 07:32:30;;;;;;;9.10;3.40;;;12.50;77.80;;;;;;5014901;28;20063;-86
2023/09/15 07:34:58;;;;;;;7.82;3.47;;;12.50;77.90;;;;;;5007494;28;20603;-86
2023/09/15 07:37:27;;;;;;;7.78;3.47;;;12.60;78.20;;;;;;4967120;28;20078;-87
2023/09/15 07:39:58;;;;;;;6.88;3.50;;;12.70;78.30;;;;;;4995647;28;20105;-87
2023/09/15 07:42:29;;;;;;;7.72;3.67;;;12.70;78.40;;;;;;4973824;28;20133;-88
2023/09/15 07:44:58;;;;;;;7.87;3.87;;;12.80;78.70;;;;;;5007980;28;20055;-89
2023/09/15 07:47:25;;;;;;;7.07;3.72;;;12.90;78.70;;;;;;4967111;28;20760;-91
2023/09/15 07:49:52;;;;;;;7.65;3.35;;;12.90;78.90;;;;;;4969276;28;20075;-90
2023/09/15 07:52:22;;;;;;;7.85;3.60;;;13.00;78.80;;;;;;4965611;28;20459;-89
2023/09/15 07:54:49;;;;;;;8.27;3.53;;;13.00;78.70;;;;;;4989773;28;20380;-89
2023/09/15 07:57:15;;;;;;;5.33;2.73;;;13.10;79.00;;;;;;4965632;28;20070;-85
2023/09/15 07:59:44;;;;;;;7.40;2.55;;;13.10;79.10;;;;;;4981339;28;20845;-85
2023/09/15 08:02:14;;;;;;;7.80;3.35;;;13.20;79.10;;;;;;4971768;28;20133;-81
2023/09/15 08:04:43;;;;;;;9.95;3.50;;;13.30;79.50;;;;;;4977704;28;20097;-81
2023/09/15 08:07:10;;;;;;;7.60;3.33;;;13.30;79.50;;;;;;4974344;28;20054;-81
2023/09/15 08:09:37;;;;;;;9.37;2.93;;;13.40;79.30;;;;;;5008963;28;20133;-81
2023/09/15 08:12:06;;;;;;;8.00;3.63;;;13.50;79.40;;;;;;4979544;28;20273;-81
2023/09/15 08:14:35;;;;;;;7.30;3.30;;;13.50;79.30;;;;;;5004975;28;20660;-81
2023/09/15 08:17:02;;;;;;;9.45;3.05;;;13.60;79.50;;;;;;4974255;28;20129;-82
2023/09/15 08:19:32;;;;;;;6.57;3.17;;;13.70;79.50;;;;;;5009346;28;20061;-79
2023/09/15 08:22:00;;;;;;;7.50;3.00;;;13.80;79.50;;;;;;4995646;28;20074;-78
2023/09/15 08:24:28;;;;;;;6.90;3.58;;;13.90;79.70;;;;;;4981348;28;20267;-81
2023/09/15 08:26:55;;;;;;;8.00;2.45;;;13.90;79.50;;;;;;5000747;28;20074;-82
2023/09/15 08:29:24;;;;;;;9.27;3.45;;;14.00;79.60;;;;;;5005723;28;20137;-84
2023/09/15 08:31:51;;;;;;;6.95;2.90;;;14.10;79.60;;;;;;5021641;28;20056;-84
2023/09/15 08:34:18;;;;;;;7.97;2.93;;;14.20;79.50;;;;;;4997098;28;20502;-88
2023/09/15 08:36:46;;;;;;;7.65;3.10;;;14.30;79.30;;;;;;4991469;28;20823;-87
2023/09/15 08:39:14;;;;;;;7.78;3.00;;;14.40;79.30;;;;;;4995102;28;20158;-91
2023/09/15 08:41:52;;;;;;;6.85;2.50;;;14.40;79.20;;;;;;5014393;28;20098;-90
2023/09/15 08:44:22;;;;;;;6.90;2.53;;;14.50;79.30;;;;;;4993755;28;20050;-89
2023/09/15 08:46:51;;;;;;;7.43;2.67;;;14.60;78.90;;;;;;4997366;28;20101;-90
2023/09/15 08:49:19;;;;;;;7.85;2.85;;;14.70;78.90;;;;;;5012674;28;20749;-89
2023/09/15 08:51:49;;;;;;;5.80;2.60;;;14.80;78.90;;;;;;4992877;28;20509;-89
2023/09/15 08:54:17;;;;;;;7.00;2.80;;;14.90;78.90;;;;;;4981804;28;20102;-86
2023/09/15 08:56:45;;;;;;;7.05;2.80;;;15.00;78.70;;;;;;4958801;28;20506;-88
2023/09/15 08:59:12;;;;;;;6.67;2.30;;;15.10;78.80;;;;;;5005954;28;20745;-83
2023/09/15 09:01:39;;;;;;;6.07;2.30;;;15.20;78.70;;;;;;4968223;28;20643;-81
2023/09/15 09:04:06;;;;;;;5.60;2.60;;;15.30;78.50;;;;;;4974237;28;20129;-81
2023/09/15 09:06:35;;;;;;;6.60;2.47;;;15.40;78.60;;;;;;4981197;28;20046;-81
2023/09/15 09:09:04;;;;;;;7.50;2.75;;;15.50;78.50;;;;;;4961104;28;20051;-80
2023/09/15 09:11:33;;;;;;;9.30;2.50;;;15.60;78.40;;;;;;5006643;28;20149;-80
2023/09/15 09:14:10;;;;;;;6.70;2.50;;;15.70;78.20;;;;;;4970265;28;20263;-80
2023/09/15 09:16:38;;;;;;;7.82;2.30;;;15.80;77.90;;;;;;4970958;28;20054;-80
2023/09/15 09:19:06;;;;;;;7.35;2.40;;;15.90;77.70;;;;;;4989403;28;20090;-80
2023/09/15 09:21:34;;;;;;;7.68;2.03;;;16.00;77.70;;;;;;5003312;28;20101;-80
2023/09/15 09:24:02;;;;;;;5.77;1.70;;;16.10;77.40;;;;;;4990392;28;20066;-80
2023/09/15 09:26:31;;;;;;;5.85;2.25;;;16.20;77.20;;;;;;4988370;28;20269;-80
2023/09/15 09:28:58;;;;;;;6.03;2.30;;;16.40;77.00;;;;;;4971922;28;20086;-80
2023/09/15 09:31:25;;;;;;;6.25;2.03;;;16.40;76.70;;;;;;4983369;28;20051;-80
2023/09/15 09:33:54;;;;;;;6.15;2.13;;;16.50;76.30;;;;;;4991562;28;20532;-80
2023/09/15 09:36:22;;;;;;;6.00;1.70;;;16.60;76.20;;;;;;5023957;28;20120;-80
2023/09/15 09:38:50;;;;;;;7.85;1.80;;;16.70;76.00;;;;;;5008923;28;20619;-80
2023/09/15 09:41:20;;;;;;;4.95;1.48;;;16.80;75.70;;;;;;4987805;28;20065;-80
2023/09/15 09:43:48;;;;;;;5.88;1.95;;;16.90;75.50;;;;;;4972292;28;20155;-80
2023/09/15 09:46:19;;;;;;;4.95;1.95;;;16.90;75.30;;;;;;4988189;28;20047;-81
2023/09/15 09:48:47;;;;;;;5.47;1.70;;;17.00;74.70;;;;;;4989758;28;20106;-80
2023/09/15 09:51:14;;;;;;;7.13;1.55;;;17.10;74.30;;;;;;4979434;28;20822;-80
2023/09/15 09:53:41;;;;;;;5.80;1.67;;;17.20;73.80;;;;;;4991496;28;20143;-80
2023/09/15 09:56:09;;;;;;;6.10;1.98;;;17.20;73.40;;;;;;4972991;28;20073;-80
2023/09/15 09:58:40;;;;;;;5.05;1.90;;;17.40;73.30;;;;;;4955601;28;20082;-80
2023/09/15 10:01:09;;;;;;;4.67;1.50;;;17.50;72.60;;;;;;4989090;28;20519;-80
2023/09/15 10:03:37;;;;;;;5.90;1.80;;;17.50;71.20;;;;;;5013875;28;20251;-80
2023/09/15 10:06:04;;;;;;;5.88;1.88;;;17.60;69.70;;;;;;4988054;28;20131;-81
2023/09/15 10:08:34;;;;;;;6.18;1.80;;;17.80;70.00;;;;;;4972466;28;20429;-81
2023/09/15 10:11:01;;;;;;;4.60;1.90;;;17.80;70.10;;;;;;4987065;28;20051;-80
2023/09/15 10:13:30;;;;;;;5.57;1.87;;;18.00;70.10;;;;;;4987364;28;20098;-81
2023/09/15 10:15:58;;;;;;;5.20;1.50;;;18.00;70.00;;;;;;4986535;28;20721;-80
2023/09/15 10:18:27;;;;;;;5.40;1.58;;;18.10;70.10;;;;;;4990610;28;20117;-81
2023/09/15 10:20:56;;;;;;;4.93;1.75;;;18.20;69.60;;;;;;4984708;28;20514;-81
2023/09/15 10:23:24;;;;;;;7.70;1.70;;;18.30;69.40;;;;;;4974502;28;20066;-81
2023/09/15 10:25:52;;;;;;;5.63;1.70;;;18.30;68.90;;;;;;4990727;28;20050;-81
2023/09/15 10:28:20;;;;;;;4.45;1.65;;;18.40;68.00;;;;;;4973721;28;20274;-80
2023/09/15 10:30:47;;;;;;;5.43;1.80;;;18.50;68.00;;;;;;4971096;28;20072;-81
2023/09/15 10:33:16;;;;;;;5.85;1.70;;;18.60;68.10;;;;;;4994360;28;20055;-81
2023/09/15 10:35:44;;;;;;;5.57;1.80;;;18.70;68.20;;;;;;5011723;28;20551;-81
2023/09/15 10:38:27;;;;;;;6.03;1.90;;;18.70;67.90;;;;;;4997919;28;20558;-81
2023/09/15 10:40:54;;;;;;;6.20;1.88;;;18.90;67.40;;;;;;4987757;28;20250;-81
2023/09/15 10:43:21;;;;;;;6.25;1.90;;;18.90;67.50;;;;;;4993975;28;20129;-81
2023/09/15 10:45:55;;;;;;;5.78;1.83;;;19.00;67.30;;;;;;4983992;28;20058;-81
2023/09/15 10:48:24;;;;;;;5.50;1.80;;;19.10;67.10;;;;;;4974494;28;20055;-81
2023/09/15 10:50:51;;;;;;;5.53;1.63;;;19.20;66.90;;;;;;4983792;28;20576;-81
2023/09/15 10:53:20;;;;;;;5.88;1.40;;;19.30;66.50;;;;;;4994539;28;20376;-81
2023/09/15 10:55:47;;;;;;;4.43;1.60;;;19.40;65.90;;;;;;4977014;28;20054;-81
2023/09/15 10:58:17;;;;;;;9.75;1.63;;;19.40;65.70;;;;;;4974333;28;20166;-81
2023/09/15 11:00:45;;;;;;;5.00;1.52;;;19.50;65.60;;;;;;4990861;28;20050;-81
2023/09/15 11:03:13;;;;;;;7.57;1.83;;;19.50;65.20;;;;;;4973470;28;20057;-81
2023/09/15 11:05:42;;;;;;;6.22;1.63;;;19.60;65.10;;;;;;4983508;28;20266;-81
2023/09/15 11:08:10;;;;;;;6.38;1.42;;;19.70;65.20;;;;;;4993557;28;20054;-81
2023/09/15 11:10:37;;;;;;;5.70;1.50;;;19.70;65.20;;;;;;4993425;28;20603;-81
2023/09/15 11:13:04;;;;;;;4.15;1.50;;;19.90;64.60;;;;;;4997315;28;20088;-81
2023/09/15 11:15:33;;;;;;;5.00;1.47;;;19.90;63.60;;;;;;4974290;28;20549;-81
2023/09/15 11:18:00;;;;;;;4.38;1.60;;;20.00;62.50;;;;;;4974410;28;20294;-81
2023/09/15 11:20:27;;;;;;;4.25;1.40;;;20.00;62.90;;;;;;4990876;28;20059;-81
2023/09/15 11:22:56;;;;;;;5.30;1.60;;;20.10;63.00;;;;;;4974346;28;20058;-81
2023/09/15 11:25:25;;;;;;;6.68;1.70;;;20.20;62.20;;;;;;5006504;28;20047;-81
2023/09/15 11:27:53;;;;;;;5.37;1.60;;;20.30;61.60;;;;;;4990480;28;20109;-81
2023/09/15 11:30:27;;;;;;;5.65;1.55;;;20.30;61.60;;;;;;4988408;28;20242;-81
2023/09/15 11:32:54;;;;;;;6.15;1.65;;;20.40;61.60;;;;;;5026689;28;20089;-81
2023/09/15 11:35:25;;;;;;;5.55;1.52;;;20.50;61.70;;;;;;5022046;28;20051;-81
2023/09/15 11:37:52;;;;;;;4.55;1.80;;;20.50;61.60;;;;;;4989483;28;20051;-81
2023/09/15 11:40:24;;;;;;;7.37;2.03;;;20.60;61.90;;;;;;4973945;28;20058;-81
2023/09/15 11:42:55;;;;;;;7.57;2.03;;;20.60;61.90;;;;;;4990151;28;20267;-82
2023/09/15 11:45:25;;;;;;;7.18;2.08;;;20.70;62.20;;;;;;5005562;28;20133;-81
2023/09/15 11:47:52;;;;;;;5.68;1.60;;;20.80;62.20;;;;;;5025911;28;20145;-81
2023/09/15 11:50:21;;;;;;;5.80;1.40;;;20.80;62.10;;;;;;4992777;28;20150;-81
2023/09/15 11:52:48;;;;;;;4.33;1.40;;;20.90;62.20;;;;;;5001949;28;20122;-81
2023/09/15 11:55:20;;;;;;;4.80;1.80;;;21.00;60.70;;;;;;4989620;28;20275;-81
2023/09/15 11:57:50;;;;;;;5.47;1.67;;;21.00;61.00;;;;;;4973452;28;20133;-81
2023/09/15 12:00:20;;;;;;;5.40;1.67;;;21.10;60.80;;;;;;4989262;28;20420;-82
2023/09/15 12:02:50;;;;;;;5.30;1.38;;;21.20;60.80;;;;;;4990153;28;20604;-81
2023/09/15 12:05:19;;;;;;;4.80;1.67;;;21.30;60.60;;;;;;4974053;28;20142;-81
2023/09/15 12:07:47;;;;;;;9.52;1.90;;;21.40;60.80;;;;;;4973341;28;20279;-81
2023/09/15 12:10:15;;;;;;;4.60;1.50;;;21.50;60.50;;;;;;4972430;28;20065;-81
2023/09/15 12:12:44;;;;;;;8.23;1.70;;;21.50;60.70;;;;;;4957493;28;20153;-82
2023/09/15 12:15:14;;;;;;;6.10;1.42;;;21.70;60.80;;;;;;5000777;28;20062;-81
2023/09/15 12:17:43;;;;;;;5.17;1.63;;;21.70;60.30;;;;;;4992983;28;20452;-82
2023/09/15 12:20:10;;;;;;;5.95;1.48;;;21.90;58.60;;;;;;4997100;28;20250;-81
2023/09/15 12:22:40;;;;;;;5.10;1.45;;;21.90;58.70;;;;;;4973260;28;20063;-82
2023/09/15 12:25:09;;;;;;;4.72;1.70;;;21.90;56.90;;;;;;4972986;28;20062;-82
2023/09/15 12:27:38;;;;;;;10.18;2.00;;;22.00;57.50;;;;;;4989995;28;20170;-82
2023/09/15 12:30:08;;;;;;;4.77;1.40;;;22.00;58.00;;;;;;4998975;28;20526;-82
2023/09/15 12:32:37;;;;;;;4.70;1.70;;;22.10;58.40;;;;;;5025404;28;20666;-82
2023/09/15 12:35:11;;;;;;;5.22;1.63;;;22.10;58.40;;;;;;4977582;28;20483;-82
2023/09/15 12:37:41;;;;;;;5.65;1.88;;;22.20;58.70;;;;;;4988946;28;20126;-82
2023/09/15 12:40:08;;;;;;;6.18;1.50;;;22.30;58.50;;;;;;4972826;28;20141;-82
2023/09/15 12:42:36;;;;;;;4.93;1.60;;;22.40;57.80;;;;;;4988458;28;20170;-82
2023/09/15 12:45:04;;;;;;;6.40;1.80;;;22.50;57.90;;;;;;4980346;28;20272;-82
2023/09/15 12:47:31;;;;;;;6.70;2.00;;;22.50;57.70;;;;;;4992133;28;20055;-82
2023/09/15 12:50:00;;;;;;;6.18;1.63;;;22.60;57.00;;;;;;4992282;28;20157;-82
2023/09/15 12:52:28;;;;;;;6.75;2.00;;;22.70;56.10;;;;;;4977816;28;20133;-82
2023/09/15 12:54:55;;;;;;;5.97;1.77;;;22.80;54.60;;;;;;4973108;28;20106;-82